Struer, Denmark
Current Conditions -  °F | °C
As of 7:55 PM on Sunday 23 Nov 2014 (Local Time) from EKKA Reporting Station
Haze Haze  
Wind Chill: 41°   Ceiling: 400
Heat Index: 46°   Visibility: 1.8mi
Dew Point: 45°   Wind: 12mph
Humidity: 93%   Direction: 150°SSE
Pressure: 29.91"   Gusts: NA
Location:  56.49°N, 8.58°E
Report Text: EKKA 231855Z 15010KT 100V190 3000 BR BKN004 08/07 Q1013
Loading
Personal Weather Stations






























Interactive Weather Map New forecast layout! Learn more

10-Day Weather Forecast

Advertisements
Track Severe Weather on mobile